Islip, New York
Current Conditions -  °F | °C
As of 6:56 AM on Thursday 18 Dec 2014 (Local Time) from KISP Reporting Station
Few Clouds Few Clouds  
Wind Chill: -3°   Ceiling: Unl
Heat Index:   Visibility: 10mi
Dew Point: -4°   Wind: 17mph
Humidity: 59%   Direction: 300°WNW
Pressure: 29.9"   Gusts: NA
Location:  40.73°N, 73.21°W
Report Text: KISP 181156Z 30015KT 10SM FEW040 FEW100 03/M04 A2990 RMK AO2 SLP124 T00281044 10050 20028 53015
Loading
Personal Weather Stations






























Interactive Weather Map New forecast layout! Learn more

10-Day Weather Forecast

Advertisements
Track Severe Weather on mobile